createdAt,value
2018-09-28T00:01:23.976Z,12.67
2018-09-28T00:03:52.026Z,13.50
2018-09-28T00:06:20.098Z,13.60
2018-09-28T00:08:48.161Z,14.17
2018-09-28T00:11:16.198Z,13.17
2018-09-28T00:13:44.312Z,12.70
2018-09-28T00:16:12.383Z,13.70
2018-09-28T00:18:40.436Z,13.90
2018-09-28T00:21:08.474Z,12.00
2018-09-28T00:23:37.492Z,12.57
2018-09-28T00:26:05.900Z,12.60
2018-09-28T00:28:33.810Z,13.13
2018-09-28T00:31:01.897Z,13.23
2018-09-28T00:33:29.934Z,12.27
2018-09-28T00:35:58.082Z,12.47
2018-09-28T00:38:26.070Z,12.60
2018-09-28T00:40:54.096Z,13.37
2018-09-28T00:43:22.242Z,14.87
2018-09-28T00:45:50.362Z,15.10
2018-09-28T00:48:18.394Z,12.33
2018-09-28T00:50:46.448Z,14.57
2018-09-28T00:53:14.481Z,13.83
2018-09-28T00:55:42.521Z,12.90
2018-09-28T00:58:10.561Z,15.17
2018-09-28T01:00:38.593Z,15.50
2018-09-28T01:03:06.871Z,16.20
2018-09-28T01:05:34.921Z,15.57
2018-09-28T01:08:02.990Z,14.57
2018-09-28T01:10:31.031Z,15.20
2018-09-28T01:12:59.206Z,18.10
2018-09-28T01:15:27.243Z,19.10
2018-09-28T01:17:55.320Z,19.97
2018-09-28T01:20:23.406Z,20.83
2018-09-28T01:22:51.462Z,23.70
2018-09-28T01:25:19.496Z,22.17
2018-09-28T01:27:47.548Z,22.43
2018-09-28T01:30:15.638Z,21.90
2018-09-28T01:32:43.749Z,22.63
2018-09-28T01:35:11.857Z,24.07
2018-09-28T01:37:39.894Z,23.07
2018-09-28T01:40:07.974Z,22.03
2018-09-28T01:42:36.077Z,22.70
2018-09-28T01:45:04.283Z,23.43
2018-09-28T01:47:32.361Z,20.93
2018-09-28T01:50:00.429Z,22.40
2018-09-28T01:52:28.553Z,21.70
2018-09-28T01:54:56.622Z,22.47
2018-09-28T01:57:24.650Z,22.83
2018-09-28T01:59:52.793Z,23.60
2018-09-28T02:02:20.842Z,21.33
2018-09-28T02:04:48.954Z,22.67
2018-09-28T02:07:17.034Z,23.33
2018-09-28T02:09:45.158Z,24.97
2018-09-28T02:12:13.215Z,23.90
2018-09-28T02:14:41.274Z,25.20
2018-09-28T02:17:09.505Z,23.90
2018-09-28T02:19:37.558Z,24.27
2018-09-28T02:22:05.602Z,24.63
2018-09-28T02:24:33.737Z,23.43
2018-09-28T02:27:01.817Z,22.43
2018-09-28T02:29:29.899Z,23.07
2018-09-28T02:31:57.997Z,25.53
2018-09-28T02:34:26.044Z,23.70
2018-09-28T02:36:54.234Z,23.93
2018-09-28T02:39:22.299Z,25.30
2018-09-28T02:41:50.354Z,23.93
2018-09-28T02:44:18.406Z,25.87
2018-09-28T02:46:46.470Z,25.43
2018-09-28T02:49:14.554Z,23.30
2018-09-28T02:51:42.622Z,24.33
2018-09-28T02:54:10.693Z,23.33
2018-09-28T02:56:38.753Z,23.90
2018-09-28T02:59:06.804Z,23.53
2018-09-28T03:01:34.902Z,24.60
2018-09-28T03:04:02.942Z,23.50
2018-09-28T03:06:30.998Z,23.07
2018-09-28T03:08:59.086Z,23.20
2018-09-28T03:11:27.160Z,23.70
2018-09-28T03:13:55.277Z,23.50
2018-09-28T03:16:23.339Z,24.70
2018-09-28T03:18:51.409Z,23.40
2018-09-28T03:21:19.570Z,22.50
2018-09-28T03:23:47.649Z,22.40
2018-09-28T03:26:15.930Z,21.23
2018-09-28T03:28:43.958Z,19.53
2018-09-28T03:31:12.034Z,18.17
2018-09-28T03:33:40.062Z,16.53
2018-09-28T03:36:08.163Z,16.17
2018-09-28T03:38:36.756Z,13.60
2018-09-28T03:41:04.805Z,7.60
2018-09-28T03:43:33.017Z,4.33
2018-09-28T03:46:01.101Z,3.23
2018-09-28T03:48:29.172Z,2.70
2018-09-28T03:50:57.193Z,3.60
2018-09-28T03:53:25.523Z,2.53
2018-09-28T03:55:53.618Z,3.00
2018-09-28T03:58:21.629Z,2.90
2018-09-28T04:00:50.141Z,2.85
2018-09-28T04:03:18.210Z,2.60
2018-09-28T04:05:46.328Z,2.40
2018-09-28T04:08:14.454Z,3.30
2018-09-28T04:10:42.621Z,2.63
2018-09-28T04:13:10.665Z,2.50
2018-09-28T04:15:38.727Z,2.70
2018-09-28T04:18:06.774Z,2.10
2018-09-28T04:20:34.842Z,2.57
2018-09-28T04:23:02.954Z,2.30
2018-09-28T04:25:31.112Z,3.10
2018-09-28T04:27:59.142Z,2.80
2018-09-28T04:30:27.229Z,2.30
2018-09-28T04:32:55.277Z,3.30
2018-09-28T04:35:23.400Z,1.63
2018-09-28T04:37:51.491Z,2.10
2018-09-28T04:40:19.545Z,3.10
2018-09-28T04:42:47.651Z,2.90
2018-09-28T04:45:15.739Z,3.50
2018-09-28T04:47:43.742Z,2.17
2018-09-28T04:50:11.798Z,2.43
2018-09-28T04:52:39.842Z,2.40
2018-09-28T04:55:07.987Z,2.50
2018-09-28T04:57:36.074Z,2.50
2018-09-28T05:00:05.132Z,2.77
2018-09-28T05:02:33.256Z,2.50
2018-09-28T05:05:01.276Z,3.90
2018-09-28T05:07:29.375Z,3.20
2018-09-28T05:09:57.446Z,3.70
2018-09-28T05:12:25.558Z,2.67
2018-09-28T05:14:53.681Z,3.17
2018-09-28T05:17:21.726Z,2.97
2018-09-28T05:19:49.781Z,3.20
2018-09-28T05:22:17.834Z,3.40
2018-09-28T05:24:45.852Z,2.93
2018-09-28T05:27:13.946Z,3.67
2018-09-28T05:29:42.067Z,4.17
2018-09-28T05:32:10.317Z,3.37
2018-09-28T05:34:38.344Z,3.57
2018-09-28T05:37:06.589Z,3.23
2018-09-28T05:39:34.784Z,4.30
2018-09-28T05:42:02.910Z,2.90
2018-09-28T05:44:30.971Z,3.60
2018-09-28T05:46:59.020Z,3.10
2018-09-28T05:49:27.055Z,3.33
2018-09-28T05:51:55.152Z,3.47
2018-09-28T05:54:23.249Z,3.17
2018-09-28T05:56:51.509Z,3.90
2018-09-28T05:59:25.106Z,4.07
2018-09-28T06:01:58.877Z,3.80
2018-09-28T06:04:32.406Z,3.20
2018-09-28T06:07:00.494Z,4.20
2018-09-28T06:09:28.691Z,2.87
2018-09-28T06:11:57.057Z,2.60
2018-09-28T06:14:25.203Z,2.80
2018-09-28T06:16:53.265Z,2.43
2018-09-28T06:19:21.346Z,3.03
2018-09-28T06:21:49.462Z,3.83
2018-09-28T06:24:17.614Z,3.33
2018-09-28T06:26:45.602Z,2.57
2018-09-28T06:29:13.614Z,3.07
2018-09-28T06:31:41.683Z,3.60
2018-09-28T06:34:09.888Z,4.30
2018-09-28T06:36:38.080Z,2.37
2018-09-28T06:39:06.458Z,3.77
2018-09-28T06:41:34.566Z,3.53
2018-09-28T06:44:02.826Z,2.77
2018-09-28T06:46:30.902Z,2.77
2018-09-28T06:48:58.931Z,3.60
2018-09-28T06:51:27.024Z,3.33
2018-09-28T06:53:55.007Z,2.90
2018-09-28T06:56:23.055Z,3.13
2018-09-28T06:58:51.089Z,3.07
2018-09-28T07:01:19.190Z,3.00
2018-09-28T07:03:47.250Z,2.43
2018-09-28T07:06:15.372Z,4.80
2018-09-28T07:08:43.414Z,3.03
2018-09-28T07:11:11.465Z,3.17
2018-09-28T07:13:39.514Z,3.80
2018-09-28T07:16:07.623Z,2.87
2018-09-28T07:18:35.613Z,4.00
2018-09-28T07:21:03.695Z,3.00
2018-09-28T07:23:31.763Z,3.93
2018-09-28T07:25:59.817Z,3.67
2018-09-28T07:28:27.869Z,2.93
2018-09-28T07:30:55.927Z,3.80
2018-09-28T07:33:24.054Z,2.93
2018-09-28T07:35:52.254Z,2.97
2018-09-28T07:38:20.287Z,3.47
2018-09-28T07:40:48.378Z,2.93
2018-09-28T07:43:16.680Z,3.20
2018-09-28T07:45:44.742Z,3.63
2018-09-28T07:48:12.864Z,3.00
2018-09-28T07:50:40.833Z,2.70
2018-09-28T07:53:08.894Z,3.40
2018-09-28T07:55:36.921Z,3.27
2018-09-28T07:58:04.971Z,2.77
2018-09-28T08:00:33.052Z,3.70
2018-09-28T08:03:01.098Z,2.87
2018-09-28T08:05:29.169Z,2.70
2018-09-28T08:07:57.218Z,2.43
2018-09-28T08:10:25.276Z,2.43
2018-09-28T08:12:53.353Z,2.67
2018-09-28T08:15:21.385Z,3.20
2018-09-28T08:17:49.466Z,2.80
2018-09-28T08:20:17.482Z,2.90
2018-09-28T08:22:45.569Z,3.67
2018-09-28T08:25:13.630Z,2.73
2018-09-28T08:27:41.698Z,2.87
2018-09-28T08:30:09.824Z,2.70
2018-09-28T08:32:37.900Z,3.23
2018-09-28T08:35:05.983Z,2.47
2018-09-28T08:37:35.054Z,2.37
2018-09-28T08:40:03.749Z,3.47
2018-09-28T08:42:31.817Z,2.90
2018-09-28T08:45:00.052Z,3.27
2018-09-28T08:47:28.168Z,3.03
2018-09-28T08:49:56.266Z,2.57
2018-09-28T08:52:24.288Z,2.87
2018-09-28T08:54:52.360Z,2.10
2018-09-28T08:57:20.378Z,2.63
2018-09-28T08:59:48.440Z,3.87
2018-09-28T09:02:16.466Z,2.30
2018-09-28T09:04:44.546Z,2.00
2018-09-28T09:07:12.562Z,2.07
2018-09-28T09:09:40.592Z,2.80
2018-09-28T09:12:08.638Z,2.73
2018-09-28T09:14:36.674Z,2.10
2018-09-28T09:17:04.778Z,2.80
2018-09-28T09:19:32.897Z,2.80
2018-09-28T09:22:00.943Z,2.40
2018-09-28T09:24:29.012Z,2.10
2018-09-28T09:26:57.102Z,2.60
2018-09-28T09:29:25.226Z,2.40
2018-09-28T09:31:53.255Z,2.53
2018-09-28T09:34:21.313Z,2.40
2018-09-28T09:36:49.345Z,2.40
2018-09-28T09:39:17.469Z,2.53
2018-09-28T09:41:45.543Z,2.30
2018-09-28T09:44:13.685Z,2.23
2018-09-28T09:46:41.726Z,2.40
2018-09-28T09:49:09.922Z,2.50
2018-09-28T09:51:38.055Z,1.80
2018-09-28T09:54:06.073Z,2.07
2018-09-28T09:56:34.126Z,2.70
2018-09-28T09:59:02.174Z,2.47
2018-09-28T10:01:35.722Z,2.13
2018-09-28T10:04:07.677Z,2.03
2018-09-28T10:06:35.731Z,2.13
2018-09-28T10:09:05.526Z,1.47
2018-09-28T10:11:33.759Z,2.10
2018-09-28T10:14:01.829Z,2.00
2018-09-28T10:16:30.034Z,2.27
2018-09-28T10:18:58.090Z,2.00
2018-09-28T10:21:26.356Z,2.07
2018-09-28T10:23:54.476Z,2.00
2018-09-28T10:26:22.586Z,2.70
2018-09-28T10:28:50.781Z,2.33
2018-09-28T10:31:18.876Z,2.50
2018-09-28T10:33:47.009Z,1.60
2018-09-28T10:36:15.101Z,1.20
2018-09-28T10:38:43.158Z,1.90
2018-09-28T10:41:11.273Z,1.70
2018-09-28T10:43:39.323Z,2.33
2018-09-28T10:46:07.622Z,1.40
2018-09-28T10:48:35.739Z,2.00
2018-09-28T10:51:04.002Z,2.07
2018-09-28T10:53:32.165Z,2.10
2018-09-28T10:56:00.245Z,2.30
2018-09-28T10:58:28.325Z,1.70
2018-09-28T11:00:56.374Z,1.90
2018-09-28T11:03:24.455Z,2.00
2018-09-28T11:05:52.483Z,2.17
2018-09-28T11:08:20.593Z,2.20
2018-09-28T11:10:48.665Z,1.97
2018-09-28T11:13:16.670Z,1.40
2018-09-28T11:15:45.672Z,1.60
2018-09-28T11:18:13.695Z,1.70
2018-09-28T11:20:41.765Z,1.60
2018-09-28T11:23:09.856Z,1.97
2018-09-28T11:25:37.894Z,1.80
2018-09-28T11:28:06.007Z,2.03
2018-09-28T11:30:34.195Z,1.80
2018-09-28T11:33:02.234Z,1.83
2018-09-28T11:35:30.303Z,1.30
2018-09-28T11:37:58.331Z,2.17
2018-09-28T11:40:26.350Z,1.40
2018-09-28T11:42:54.408Z,1.83
2018-09-28T11:45:22.481Z,1.67
2018-09-28T11:47:50.557Z,1.97
2018-09-28T11:50:18.601Z,1.80
2018-09-28T11:52:46.643Z,1.83
2018-09-28T11:55:14.670Z,1.90
2018-09-28T11:57:42.795Z,1.43
2018-09-28T12:00:10.893Z,1.90
2018-09-28T12:02:38.965Z,1.47
2018-09-28T12:05:07.156Z,1.77
2018-09-28T12:07:35.202Z,1.30
2018-09-28T12:10:03.211Z,1.83
2018-09-28T12:12:31.286Z,1.70
2018-09-28T12:14:59.399Z,1.83
2018-09-28T12:17:27.421Z,1.30
2018-09-28T12:19:55.447Z,1.37
2018-09-28T12:22:23.535Z,1.80
2018-09-28T12:24:51.657Z,1.67
2018-09-28T12:27:19.767Z,2.07
2018-09-28T12:29:47.750Z,1.47
2018-09-28T12:32:15.762Z,1.80
2018-09-28T12:34:43.873Z,1.60
2018-09-28T12:37:12.038Z,1.50
2018-09-28T12:39:40.096Z,2.10
2018-09-28T12:42:08.307Z,2.00
2018-09-28T12:44:36.420Z,2.43
2018-09-28T12:47:04.452Z,1.73
2018-09-28T12:49:32.480Z,2.57
2018-09-28T12:52:00.598Z,1.73
2018-09-28T12:54:28.772Z,1.70
2018-09-28T12:56:56.718Z,1.93
2018-09-28T12:59:24.777Z,1.80
2018-09-28T13:01:52.773Z,1.30
2018-09-28T13:04:20.788Z,1.57
2018-09-28T13:06:50.288Z,1.47
2018-09-28T13:09:18.242Z,1.50
2018-09-28T13:11:46.770Z,1.50
2018-09-28T13:14:14.843Z,1.70
2018-09-28T13:16:42.921Z,2.43
2018-09-28T13:19:11.001Z,1.53
2018-09-28T13:21:39.102Z,1.80
2018-09-28T13:24:07.212Z,1.83
2018-09-28T13:26:35.315Z,2.23
2018-09-28T13:29:03.356Z,1.37
2018-09-28T13:31:31.330Z,1.63
2018-09-28T13:33:59.367Z,1.67
2018-09-28T13:36:27.496Z,1.87
2018-09-28T13:38:55.543Z,1.83
2018-09-28T13:41:23.585Z,1.73
2018-09-28T13:43:51.643Z,1.77
2018-09-28T13:46:19.729Z,1.67
2018-09-28T13:48:47.927Z,1.60
2018-09-28T13:51:15.922Z,1.97
2018-09-28T13:53:44.145Z,1.47
2018-09-28T13:56:12.145Z,1.30
2018-09-28T13:58:40.256Z,2.13
2018-09-28T14:01:08.267Z,1.50
2018-09-28T14:03:36.294Z,1.40
2018-09-28T14:06:04.345Z,2.47
2018-09-28T14:08:32.374Z,1.30
2018-09-28T14:11:00.390Z,1.80
2018-09-28T14:13:28.495Z,1.90
2018-09-28T14:15:56.509Z,1.47
2018-09-28T14:18:24.615Z,2.20
2018-09-28T14:20:52.601Z,1.50
2018-09-28T14:23:20.615Z,1.57
2018-09-28T14:25:48.667Z,1.27
2018-09-28T14:28:16.708Z,1.13
2018-09-28T14:30:44.777Z,1.33
2018-09-28T14:33:12.883Z,1.27
2018-09-28T14:35:40.952Z,1.73
2018-09-28T14:38:08.971Z,1.60
2018-09-28T14:40:37.091Z,1.60
2018-09-28T14:43:05.129Z,1.60
2018-09-28T14:45:33.166Z,1.60
2018-09-28T14:48:01.154Z,1.63
2018-09-28T14:50:29.198Z,1.97
2018-09-28T14:52:58.305Z,2.00
2018-09-28T14:55:26.329Z,1.43
2018-09-28T14:57:54.432Z,1.87
2018-09-28T15:00:23.005Z,2.07
2018-09-28T15:02:51.096Z,1.37
2018-09-28T15:05:19.192Z,1.90
2018-09-28T15:07:47.368Z,1.70
2018-09-28T15:10:15.449Z,1.53
2018-09-28T15:12:43.606Z,2.47
2018-09-28T15:15:11.642Z,1.70
2018-09-28T15:17:39.665Z,2.40
2018-09-28T15:20:07.720Z,1.67
2018-09-28T15:22:35.807Z,1.83
2018-09-28T15:25:03.906Z,1.73
2018-09-28T15:27:31.942Z,2.30
2018-09-28T15:30:00.034Z,1.60
2018-09-28T15:32:28.244Z,1.90
2018-09-28T15:34:56.297Z,2.10
2018-09-28T15:37:24.399Z,1.37
2018-09-28T15:39:52.425Z,1.50
2018-09-28T15:42:20.523Z,2.00
2018-09-28T15:44:48.960Z,1.20
2018-09-28T15:47:16.993Z,1.90
2018-09-28T15:49:45.092Z,1.33
2018-09-28T15:52:13.219Z,1.70
2018-09-28T15:54:41.269Z,1.93
2018-09-28T15:57:09.322Z,1.70
2018-09-28T15:59:37.370Z,2.00
2018-09-28T16:02:05.559Z,1.53
2018-09-28T16:04:33.565Z,1.70
2018-09-28T16:07:01.599Z,1.23
2018-09-28T16:09:29.658Z,1.83
2018-09-28T16:11:57.838Z,1.67
2018-09-28T16:14:25.947Z,1.70
2018-09-28T16:16:54.354Z,1.30
2018-09-28T16:19:22.445Z,1.67
2018-09-28T16:21:50.590Z,1.20
2018-09-28T16:24:18.737Z,1.20
2018-09-28T16:26:46.799Z,1.70
2018-09-28T16:29:14.898Z,1.40
2018-09-28T16:31:43.052Z,2.17
2018-09-28T16:34:11.218Z,1.00
2018-09-28T16:36:39.265Z,1.90
2018-09-28T16:39:08.690Z,3.37
2018-09-28T16:41:36.751Z,2.20
2018-09-28T16:44:04.835Z,1.70
2018-09-28T16:46:32.890Z,1.37
2018-09-28T16:49:01.097Z,1.57
2018-09-28T16:51:29.269Z,1.43
2018-09-28T16:53:57.454Z,1.30
2018-09-28T16:56:25.638Z,1.37
2018-09-28T16:58:53.729Z,1.87
2018-09-28T17:01:21.905Z,1.83
2018-09-28T17:03:49.933Z,1.80
2018-09-28T17:06:18.033Z,1.50
2018-09-28T17:08:46.153Z,3.40
2018-09-28T17:11:14.186Z,1.83
2018-09-28T17:13:42.315Z,2.33
2018-09-28T17:16:10.453Z,2.13
2018-09-28T17:18:38.506Z,2.60
2018-09-28T17:21:06.751Z,1.50
2018-09-28T17:23:34.913Z,2.03
2018-09-28T17:26:02.979Z,2.10
2018-09-28T17:28:31.130Z,2.33
2018-09-28T17:30:59.201Z,2.20
2018-09-28T17:33:27.251Z,1.83
2018-09-28T17:35:56.818Z,1.97
2018-09-28T17:38:25.942Z,2.20
2018-09-28T17:40:54.083Z,2.30
2018-09-28T17:43:22.196Z,2.80
2018-09-28T17:45:50.671Z,2.27
2018-09-28T17:48:18.708Z,1.80
2018-09-28T17:50:46.777Z,2.17
2018-09-28T17:53:15.797Z,2.60
2018-09-28T17:55:43.850Z,2.00
2018-09-28T17:58:11.866Z,2.00
2018-09-28T18:00:40.006Z,1.97
2018-09-28T18:03:08.050Z,1.90
2018-09-28T18:05:36.205Z,1.90
2018-09-28T18:08:04.300Z,2.43
2018-09-28T18:10:32.365Z,2.30
2018-09-28T18:13:00.463Z,2.60
2018-09-28T18:15:28.514Z,2.50
2018-09-28T18:17:56.600Z,2.30
2018-09-28T18:20:24.703Z,2.13
2018-09-28T18:22:52.727Z,2.17
2018-09-28T18:25:20.765Z,1.30
2018-09-28T18:27:48.814Z,1.80
2018-09-28T18:30:16.884Z,3.10
2018-09-28T18:32:45.030Z,2.70
2018-09-28T18:35:13.114Z,2.53
2018-09-28T18:37:41.207Z,3.00
2018-09-28T18:40:09.222Z,2.20
2018-09-28T18:42:37.362Z,2.20
2018-09-28T18:45:05.645Z,1.90
2018-09-28T18:47:33.690Z,2.07
2018-09-28T18:50:01.771Z,1.83
2018-09-28T18:52:29.863Z,1.90
2018-09-28T18:54:57.945Z,2.87
2018-09-28T18:57:25.953Z,2.27
2018-09-28T18:59:53.984Z,2.80
2018-09-28T19:02:22.032Z,2.20
2018-09-28T19:04:50.108Z,1.77
2018-09-28T19:07:18.212Z,2.97
2018-09-28T19:09:46.290Z,2.53
2018-09-28T19:12:15.390Z,2.20
2018-09-28T19:14:43.402Z,2.37
2018-09-28T19:17:11.489Z,2.60
2018-09-28T19:19:39.515Z,2.20
2018-09-28T19:22:07.617Z,2.07
2018-09-28T19:24:35.870Z,2.83
2018-09-28T19:27:04.031Z,2.77
2018-09-28T19:29:34.144Z,1.90
2018-09-28T19:32:02.189Z,2.00
2018-09-28T19:34:30.249Z,2.50
2018-09-28T19:36:58.993Z,2.20
2018-09-28T19:39:27.077Z,2.03
2018-09-28T19:41:55.217Z,1.90
2018-09-28T19:44:23.261Z,2.07
2018-09-28T19:46:51.290Z,2.10
2018-09-28T19:49:19.396Z,2.10
2018-09-28T19:51:47.517Z,2.40
2018-09-28T19:54:15.583Z,2.20
2018-09-28T19:56:43.769Z,2.23
2018-09-28T19:59:11.825Z,1.80
2018-09-28T20:01:39.854Z,2.93
2018-09-28T20:04:08.044Z,3.00
2018-09-28T20:06:36.337Z,2.60
2018-09-28T20:09:06.371Z,2.03
2018-09-28T20:11:34.491Z,2.50
2018-09-28T20:14:02.583Z,2.47
2018-09-28T20:16:30.637Z,2.20
2018-09-28T20:18:58.751Z,2.80
2018-09-28T20:21:26.821Z,2.40
2018-09-28T20:23:54.896Z,2.97
2018-09-28T20:26:23.054Z,2.60
2018-09-28T20:28:51.058Z,2.27
2018-09-28T20:31:19.154Z,2.73
2018-09-28T20:33:47.201Z,2.10
2018-09-28T20:36:15.254Z,2.23
2018-09-28T20:38:43.282Z,2.83
2018-09-28T20:41:11.357Z,3.67
2018-09-28T20:43:39.438Z,2.00
2018-09-28T20:46:07.606Z,4.50
2018-09-28T20:48:35.796Z,2.53
2018-09-28T20:51:03.829Z,2.33
2018-09-28T20:53:32.069Z,2.10
2018-09-28T20:56:00.094Z,2.70
2018-09-28T20:58:28.117Z,2.30
2018-09-28T21:01:00.033Z,2.70
2018-09-28T21:03:28.034Z,2.40
2018-09-28T21:05:56.083Z,2.40
2018-09-28T21:08:24.106Z,2.73
2018-09-28T21:10:52.127Z,2.80
2018-09-28T21:13:20.197Z,2.43
2018-09-28T21:15:48.193Z,2.27
2018-09-28T21:18:16.238Z,2.10
2018-09-28T21:20:44.246Z,2.90
2018-09-28T21:23:12.339Z,2.60
2018-09-28T21:25:40.377Z,2.87
2018-09-28T21:28:08.414Z,2.20
2018-09-28T21:30:36.566Z,2.13
2018-09-28T21:33:04.609Z,2.30
2018-09-28T21:35:32.642Z,2.67
2018-09-28T21:38:00.675Z,2.87
2018-09-28T21:40:28.687Z,2.10
2018-09-28T21:42:56.759Z,1.83
2018-09-28T21:45:24.783Z,2.53
2018-09-28T21:47:52.870Z,2.43
2018-09-28T21:50:20.912Z,2.37
2018-09-28T21:52:48.941Z,1.77
2018-09-28T21:55:16.950Z,2.67
2018-09-28T21:57:44.963Z,2.40
2018-09-28T22:00:12.993Z,1.67
2018-09-28T22:02:41.017Z,2.20
2018-09-28T22:05:09.058Z,2.00
2018-09-28T22:07:37.094Z,2.47
2018-09-28T22:10:05.318Z,2.40
2018-09-28T22:12:33.350Z,2.10
2018-09-28T22:15:01.352Z,2.00
2018-09-28T22:17:29.633Z,2.60
2018-09-28T22:19:57.659Z,2.23
2018-09-28T22:22:25.761Z,2.63
2018-09-28T22:24:53.774Z,2.10
2018-09-28T22:27:21.775Z,2.20
2018-09-28T22:29:49.817Z,1.80
2018-09-28T22:32:17.841Z,2.80
2018-09-28T22:34:45.914Z,1.83
2018-09-28T22:37:13.973Z,2.90
2018-09-28T22:39:42.019Z,2.20
2018-09-28T22:42:10.054Z,3.37
2018-09-28T22:44:38.141Z,2.53
2018-09-28T22:47:06.201Z,3.40
2018-09-28T22:49:34.274Z,1.93
2018-09-28T22:52:02.287Z,2.70
2018-09-28T22:54:30.317Z,2.50
2018-09-28T22:56:58.327Z,2.60
2018-09-28T22:59:26.344Z,2.20
2018-09-28T23:01:54.390Z,2.90
2018-09-28T23:04:22.441Z,1.83
2018-09-28T23:06:50.510Z,2.40
2018-09-28T23:09:18.597Z,2.20
2018-09-28T23:11:46.645Z,1.87
2018-09-28T23:14:14.678Z,2.50
2018-09-28T23:16:42.694Z,2.30
2018-09-28T23:19:10.712Z,1.93
2018-09-28T23:21:38.758Z,2.10
2018-09-28T23:24:07.077Z,2.00
2018-09-28T23:26:35.105Z,2.10
2018-09-28T23:29:03.247Z,4.20
2018-09-28T23:31:31.334Z,2.50
2018-09-28T23:33:59.346Z,2.67
2018-09-28T23:36:27.356Z,2.70
2018-09-28T23:38:55.409Z,2.17
2018-09-28T23:41:23.458Z,1.97
2018-09-28T23:43:51.470Z,3.10
2018-09-28T23:46:19.482Z,2.10
2018-09-28T23:48:47.502Z,2.90
2018-09-28T23:51:15.508Z,2.00
2018-09-28T23:53:43.542Z,3.03
2018-09-28T23:56:11.534Z,2.63
2018-09-28T23:58:39.553Z,2.00
